ラパス の空港の天気 - METARとTAF

エル・アルト国際空港 ( SLLP / LPB ) - ボリビア ラパス
飛行場実況気象(Metar)
観測時間10/19 14:00 BOT (10/19 18:00 UTC)
風向・風速北西 3m/s
視程10km以上
天気現象
少しの雲 雲底高度 610m
少しの雲 雲底高度 700m
全天の8割程度の雲 雲底高度 6100m
気温14℃
湿度47%
気圧1035hPa
METARSLLP 191800Z 31005KT 9999 FEW020 FEW023CB BKN200 14/03 Q1035
過去の天気等 Google飛行場航空写真 Wunderground天気予報

過去48時間のMETAR

飛行場予報(TAF)
発表時間: 10/19 12:00 BOT (10/19 16:00 UTC)
予報対象時間: 19日14時 BOT ~ 20日14時 BOT
風向・風速南東 5m/s
視程10km以上
全天の4割程度の雲 雲底高度 460m
少しの積乱雲 雲底高度 520m
全天の4割程度の雲 雲底高度 2130m
19日15時 BOT ~ 19日18時 BOT に一時的に
風向・風速北北西 7m/s
視程8000m
天気現象周辺で雷しゅう雨
19日20時 BOT ~ 19日22時 BOT に徐々に
風向・風速東北東 3m/s
全天の4割程度の雲 雲底高度 460m
全天の4割程度の雲 雲底高度 2130m
20日2時 BOT ~ 20日6時 BOT に一時的に
風向・風速東 3m/s
TAF SLLP 191600Z 1918/2018 13010KT 9999 SCT015 FEW017CB SCT070 TX14/ 1920Z TN02/2010Z
TEMPO 1919/1922 34013KT 8000 VCTSSH
BECMG 2000/2002 06006KT SCT015 SCT070
TEMPO 2006/2010 10005KT 3000E VCFG FEW002 SCT012 BKN070